Tiempo atmosférico en la estación meteorológica de Silleda, Pontevedra (422 m.)



Fecha
DESCASC
Temp. máxima en grados centígrados (hora)
DESCASC
Temp. mínima en grados centígrados (hora)
DESCASC
Temp. media en grados centígrados
DESCASC
Racha de viento máxima en m/sg (hora)
DESCASC
Velocidad máxima media en intervalos de 10 minutos(hora)
DESCASC
Precipitaciones diarias en mm
DESCASC
Precipitaciones de 00:00 a 06:00 en mm
DESCASC
Precipitaciones de 06:00 a 12:00 en mm
DESCASC
Precipitaciones de 12:00 a 18:00 en mm
DESCASC
Precipitaciones de 18:00 a 24:00 en mm
DESCASC
19-09-2019 30.1 (13:20) 14.5 (08:00) 22.3 7.78 (17:40) 4.17 (15:20) 1.2 0 0 1 0.2
18-09-2019 30.6 (16:30) 14.8 (08:10) 22.7 6.67 (10:20) 4.17 (08:50) 0 0 0 0 0
17-09-2019 30.9 (14:20) 16.9 (00:00) 23.9 7.22 (11:40) 4.44 (22:40) 0.2 0 0 0.2 0
16-09-2019 29.2 (17:10) 13.8 (00:00) 21.5 6.11 (10:40) 3.33 (17:20) 0 0 0 0 0
15-09-2019 32.7 (17:30) 15.8 (00:00) 24.3 5.56 (19:30) 3.61 (07:10) 0 0 0 0 0
14-09-2019 31.7 (18:10) 15.3 (00:00) 23.5 8.06 (03:40) 4.44 (04:50) 0 0 0 0 0
13-09-2019 32.6 (17:10) 14.4 (00:00) 23.5 7.78 (09:30) 5 (09:40) 0 0 0 0 0
12-09-2019 33.6 (18:50) 11.6 (00:00) 22.6 8.33 (04:10) 5 (10:00) 0 0 0 0 0
11-09-2019 26.8 (18:30) 8.8 (00:00) 17.8 7.78 (12:30) 3.06 (12:30) 0 0 0 0 0
10-09-2019 21.6 (18:30) 9 (07:00) 15.3 7.22 (15:40) 3.06 (15:50) 0 0 0 0 0
09-09-2019 22.5 (17:10) 8.9 (07:30) 15.7 7.78 (17:00) 4.17 (17:40) 4.6 0 0 0 4.6
08-09-2019 29.7 (17:50) 10.5 (00:00) 20.1 5.83 (18:00) 2.78 (18:00) 0 0 0 0 0
07-09-2019 27.4 (16:50) 8.7 (00:00) 18 8.33 (17:00) 3.33 (17:00) 0 0 0 0 0
06-09-2019 26.6 (17:30) 10.3 (00:00) 18.5 8.61 (11:50) 3.89 (11:40) 0 0 0 0 0
05-09-2019 24.6 (18:30) 11.9 (00:00) 18.3 11.94 (11:30) 5.28 (11:40) 0 0 0 0 0
04-09-2019 28.8 (17:20) 12.5 (00:00) 20.6 8.89 (16:40) 3.06 (16:50) 0 0 0 0 0
03-09-2019 33.5 (17:40) 14.4 (00:00) 23.9 8.61 (08:30) 5.28 (08:40) 0 0 0 0 0
02-09-2019 30 (17:40) 12.1 (00:00) 21.1 8.61 (00:50) 3.89 (12:00) 0.2 0.2 0 0 0
01-09-2019 21 (15:40) 12.4 (00:00) 16.7 8.33 (16:20) 3.33 (16:30) 0 0 0 0 0
31-08-2019 25.8 (14:40) 14.5 (00:00) 20.1 8.61 (17:10) 4.44 (16:10) 0.2 0 0.2 0 0
30-08-2019 30.9 (16:40) 13.8 (00:00) 22.3 6.67 (16:20) 3.89 (01:50) 0 0 0 0 0
29-08-2019 29.2 (17:20) 11.3 (00:00) 20.3 6.11 (16:20) 3.33 (19:00) 0 0 0 0 0
28-08-2019 27.5 (17:50) 14.8 (00:00) 21.2 6.39 (17:40) 3.61 (18:10) 0 0 0 0 0
27-08-2019 28.2 (17:20) 15.1 (00:00) 21.7 6.94 (17:30) 3.89 (17:30) 0 0 0 0 0
26-08-2019 29.5 (17:20) 14.2 (00:00) 21.8 6.94 (09:00) 4.72 (09:00) 0.4 0 0 0 0.4
25-08-2019 29.3 (17:40) 13.9 (00:00) 21.6 6.94 (09:00) 3.61 (09:00) 0 0 0 0 0
24-08-2019 29.1 (18:50) 13.3 (00:00) 21.2 6.11 (16:20) 3.33 (16:20) 0 0 0 0 0
23-08-2019 35.4 (17:30) 19.3 (00:00) 27.4 8.33 (08:50) 5.83 (08:20) 0 0 0 0 0
22-08-2019 34.6 (17:10) 13 (00:00) 23.8 9.17 (12:00) 5.56 (12:10) 0 0 0 0 0
21-08-2019 30 (17:40) 13.6 (00:00) 21.8 8.61 (10:10) 5.28 (08:10) 0 0 0 0 0

Gráficas

Temp. máximas Temp. mínimas Temp. medias Precipitaciones Rachas de viento máximas Velocidades máximas media en intervalos de 10 minutos

Datos horarios

Fecha y hora oficial Temperatura (ºC) Velocidad del viento (km/h) Dirección del viento Racha (km/h) Dirección de racha Precipitación (mm) Presión (hPa) Tendencia (hPa) Humedad (%)
2019-09-19 23:00:00 17.5 0 Calma 6 Este 0 -- -- 91
2019-09-19 22:00:00 18.4 3 Nordeste 5 Norte 0 -- -- 89
2019-09-19 21:00:00 20.1 2 Este 9 Este 0 -- -- 83
2019-09-19 20:00:00 21.9 4 Este 20 Sudeste 0 -- -- 76
2019-09-19 19:00:00 23.9 5 Este 14 Sur 0.2 -- -- 71
2019-09-19 18:00:00 21.4 8 Sur 28 Sur 0.4 -- -- 75
2019-09-19 17:00:00 24.3 2 Sudeste 23 Noroeste 0.6 -- -- 78
2019-09-19 16:00:00 29.5 11 Noroeste 27 Noroeste 0 -- -- 51
2019-09-19 15:00:00 29 13 Noroeste 25 Noroeste 0 -- -- 52
2019-09-19 14:00:00 28 12 Noroeste 20 Noroeste 0 -- -- 54
2019-09-19 13:00:00 29.3 5 Sudeste 14 Este 0 -- -- 44
2019-09-19 12:00:00 26.8 8 Sudeste 17 Sudeste 0 -- -- 52
2019-09-19 11:00:00 22.5 9 Sudeste 21 Sudeste 0 -- -- 67
2019-09-19 10:00:00 18 9 Sudeste 18 Sudeste 0 -- -- 83
2019-09-19 09:00:00 15.6 8 Sudeste 17 Sudeste 0 -- -- 92
2019-09-19 08:00:00 14.5 5 Sudeste 18 Sudeste 0 -- -- 95
2019-09-19 07:00:00 14.8 6 Sudeste 17 Sudeste 0 -- -- 95
2019-09-19 06:00:00 14.7 8 Sudeste 15 Sudeste 0 -- -- 95
2019-09-19 05:00:00 14.9 6 Sudeste 16 Este 0 -- -- 94
2019-09-19 04:00:00 15.2 9 Sudeste 16 Sudeste 0 -- -- 93
2019-09-19 03:00:00 15.4 9 Sudeste 18 Sudeste 0 -- -- 93
2019-09-19 02:00:00 16 7 Sudeste 17 Sudeste 0 -- -- 93
2019-09-19 01:00:00 16.6 10 Sudeste 17 Sudeste 0 -- -- 91
2019-09-19 00:00:00 17.7 6 Sudeste 10 Sudeste 0 -- -- 86
2019-09-18 23:00:00 17.5 0 Calma 6 Este 0 -- -- 84
2019-09-18 22:00:00 18.7 0 Calma 6 Noroeste 0 -- -- 78
2019-09-18 21:00:00 20.2 2 Norte 7 Oeste 0 -- -- 75
2019-09-18 20:00:00 22.4 3 Oeste 9 Oeste 0 -- -- 70
2019-09-18 19:00:00 23.9 7 Noroeste 13 Norte 0 -- -- 65
2019-09-18 18:00:00 26.6 7 Noroeste 18 Noroeste 0 -- -- 53
2019-09-18 17:00:00 27 7 Noroeste 18 Noroeste 0 -- -- 48
2019-09-18 16:00:00 28.6 7 Noroeste 21 Noroeste 0 -- -- 43
2019-09-18 15:00:00 28.4 4 Sudoeste 13 Noroeste 0 -- -- 40
2019-09-18 14:00:00 27.6 6 Sudeste 15 Sudeste 0 -- -- 41
2019-09-18 13:00:00 27.4 7 Sudeste 15 Sur 0 -- -- 45
2019-09-18 12:00:00 24.9 9 Sudeste 18 Sudeste 0 -- -- 50
2019-09-18 11:00:00 20.5 10 Sudeste 24 Sudeste 0 -- -- 63
2019-09-18 10:00:00 16.2 15 Sudeste 23 Sudeste 0 -- -- 75
2019-09-18 09:00:00 15.5 13 Sudeste 23 Sudeste 0 -- -- 76
2019-09-18 08:00:00 14.9 10 Sudeste 17 Sudeste 0 -- -- 80
2019-09-18 07:00:00 15.6 9 Sudeste 18 Sudeste 0 -- -- 80
2019-09-18 06:00:00 15.5 7 Sudeste 14 Sudeste 0 -- -- 84
2019-09-18 05:00:00 16.1 5 Sudeste 17 Sudeste 0 -- -- 80
2019-09-18 04:00:00 16.6 10 Sudeste 17 Este 0 -- -- 80
2019-09-18 03:00:00 16.9 8 Sudeste 20 Sudeste 0 -- -- 80
2019-09-18 02:00:00 16.6 3 Sudeste 19 Este 0 -- -- 81
2019-09-18 01:00:00 16.6 4 Sudeste 7 Este 0 -- -- 81
2019-09-18 00:00:00 17.7 4 Este 25 Sudeste 0 -- -- 76
2019-09-17 23:00:00 18.7 12 Sudeste 25 Sudeste 0 -- -- 74
2019-09-17 22:00:00 19.5 11 Sudeste 19 Sudeste 0 -- -- 81
2019-09-17 21:00:00 20 6 Este 10 Sudeste 0 -- -- 79
2019-09-15 18:00:00 -- -- -- -- -- -- -- -- --
2019-09-15 17:00:00 -- -- -- -- -- -- -- -- --
2019-09-15 16:00:00 -- -- -- -- -- -- -- -- --
2019-09-15 15:00:00 -- -- -- -- -- -- -- -- --
2019-09-15 14:00:00 26.9 9 Noroeste 18 Noroeste 0 -- -- 55
2019-09-15 13:00:00 25.3 10 Noroeste 15 Norte 0 -- -- 58
2019-09-15 12:00:00 26.8 2 Sudoeste 6 Oeste 0 -- -- 55
2019-09-15 11:00:00 22.6 3 Noroeste 8 Noroeste 0 -- -- 63
2019-09-15 10:00:00 20.6 5 Este 13 Sudeste 0 -- -- 67
2019-09-15 09:00:00 16 2 Sudeste 9 Este 0 -- -- 82
2019-09-15 08:00:00 16.6 2 Este 18 Este 0 -- -- 79
2019-09-15 07:00:00 18.5 12 Este 19 Sudeste 0 -- -- 72
2019-09-15 06:00:00 18 8 Sudeste 14 Este 0 -- -- 74
2019-09-15 05:00:00 18 8 Sudeste 10 Sudeste 0 -- -- 76
2019-09-15 04:00:00 17.1 8 Sudeste 14 Este 0 -- -- 82
2019-09-15 03:00:00 17.8 9 Sudeste 19 Sudeste 0 -- -- 81
2019-09-15 02:00:00 16.8 8 Sudeste 14 Sudeste 0 -- -- 86
2019-09-15 01:00:00 17.5 6 Sudeste 18 Este 0 -- -- 83
2019-09-15 00:00:00 18 6 Sudeste 12 Sur 0 -- -- 81
2019-09-14 23:00:00 18.5 0 Calma 6 Nordeste 0 -- -- 79
2019-09-14 22:00:00 20.5 4 Nordeste 12 Norte 0 -- -- 70
2019-09-14 21:00:00 22.8 4 Nordeste 15 Este 0 -- -- 62
2019-09-14 20:00:00 27 5 Nordeste 20 Nordeste 0 -- -- 48
2019-09-14 19:00:00 31.2 6 Nordeste 18 Nordeste 0 -- -- 39
2019-09-14 18:00:00 31.4 6 Este 21 Este 0 -- -- 37
2019-09-14 17:00:00 30.1 8 Nordeste 23 Nordeste 0 -- -- 38
2019-09-14 16:00:00 30.6 9 Nordeste 22 Nordeste 0 -- -- 38
2019-09-14 15:00:00 29.9 7 Nordeste 24 Este 0 -- -- 39
2019-09-14 14:00:00 28.4 11 Este 28 Nordeste 0 -- -- 40
2019-09-14 13:00:00 28 9 Este 19 Este 0 -- -- 43
2019-09-14 12:00:00 26.6 9 Sudeste 18 Sudeste 0 -- -- 48
2019-09-14 11:00:00 23.7 6 Sudeste 20 Este 0 -- -- 56
2019-09-14 10:00:00 19.5 6 Sudeste 16 Sudeste 0 -- -- 68
2019-09-14 09:00:00 16.2 8 Este 14 Nordeste 0 -- -- 76
2019-09-14 08:00:00 15.6 6 Sudeste 13 Sudeste 0 -- -- 80
2019-09-14 07:00:00 15.5 7 Sudeste 13 Sudeste 0 -- -- 84
2019-09-14 06:00:00 -- -- -- -- -- -- -- -- --
2019-09-14 05:00:00 -- -- -- -- -- -- -- -- --
2019-09-14 04:00:00 -- -- -- -- -- -- -- -- --
2019-09-14 03:00:00 -- -- -- -- -- -- -- -- --
2019-09-14 02:00:00 16.8 14 Sudeste 28 Sudeste 0 -- -- 82
2019-09-14 01:00:00 17.1 10 Sudeste 23 Sur 0 -- -- 82
2019-09-14 00:00:00 17.4 12 Sudeste 28 Este 0 -- -- 83
2019-09-13 23:00:00 17.6 14 Este 28 Este 0 -- -- 82
2019-09-13 22:00:00 18.5 10 Sudeste 22 Sudeste 0 -- -- 78
2019-09-13 21:00:00 20 3 Nordeste 10 Nordeste 0 -- -- 71
2019-09-13 20:00:00 25.1 5 Nordeste 18 Este 0 -- -- 55
2019-09-13 19:00:00 29.8 6 Nordeste 21 Este 0 -- -- 43
2019-09-13 18:00:00 29.7 14 Este 24 Este 0 -- -- 40
2019-09-13 17:00:00 31.7 10 Este 24 Este 0 -- -- 32
2019-09-13 16:00:00 32.3 8 Nordeste 20 Norte 0 -- -- 36
2019-09-13 15:00:00 32.2 6 Nordeste 18 Nordeste 0 -- -- 33
2019-09-13 14:00:00 31 5 Sudeste 17 Sudeste 0 -- -- 32
2019-09-13 13:00:00 29.2 8 Este 20 Este 0 -- -- 41
2019-09-13 12:00:00 27.4 7 Sudeste 22 Sudeste 0 -- -- 45
2019-09-13 11:00:00 23.1 10 Sudeste 21 Este 0 -- -- 55
2019-09-13 10:00:00 19.1 12 Este 28 Este 0 -- -- 65
2019-09-13 09:00:00 15.4 6 Sudeste 21 Este 0 -- -- 78
2019-09-13 08:00:00 15.1 13 Sudeste 28 Este 0 -- -- 79
2019-09-13 07:00:00 15.4 17 Sudeste 26 Este 0 -- -- 78
2019-09-13 06:00:00 15.2 12 Sudeste 21 Sudeste 0 -- -- 81
2019-09-13 05:00:00 14.9 6 Sudeste 13 Sudeste 0 -- -- 83
2019-09-13 04:00:00 14.8 5 Sur 10 Sudeste 0 -- -- 83
2019-09-13 03:00:00 15 5 Sur 14 Sudeste 0 -- -- 83
2019-09-13 02:00:00 15.7 3 Sudeste 7 Sudeste 0 -- -- 78
2019-09-13 01:00:00 16.2 0 Calma 11 Este 0 -- -- 79
2019-09-13 00:00:00 17.4 5 Este 19 Este 0 -- -- 73
2019-09-12 23:00:00 18.6 6 Sudeste 13 Sudeste 0 -- -- 68
2019-09-12 22:00:00 19.5 2 Noroeste 10 Este 0 -- -- 63
2019-09-12 21:00:00 22.5 4 Este 10 Nordeste 0 -- -- 52
2019-09-12 20:00:00 29.7 4 Nordeste 14 Nordeste 0 -- -- 31
2019-09-12 19:00:00 33.5 4 Nordeste 15 Nordeste 0 -- -- 23
2019-09-12 18:00:00 32.8 5 Norte 24 Nordeste 0 -- -- 28
2019-09-12 17:00:00 31.9 7 Norte 19 Noroeste 0 -- -- 27
2019-09-12 16:00:00 30.4 6 Norte 19 Noroeste 0 -- -- 32
2019-09-12 15:00:00 29.2 10 Noroeste 18 Noroeste 0 -- -- 37
2019-09-12 14:00:00 29.5 5 Sur 15 Sur 0 -- -- 29
2019-09-12 13:00:00 27.2 9 Sudeste 20 Sudeste 0 -- -- 37
2019-09-12 12:00:00 24.8 9 Sudeste 19 Sudeste 0 -- -- 43
2019-09-12 11:00:00 23 5 Este 27 Sudeste 0 -- -- 48
2019-09-12 10:00:00 17.7 18 Sudeste 30 Sudeste 0 -- -- 59
2019-09-12 09:00:00 13.7 14 Sudeste 28 Sudeste 0 -- -- 76
2019-09-12 08:00:00 13 13 Sudeste 22 Sudeste 0 -- -- 81
2019-09-12 07:00:00 13.9 11 Sudeste 24 Sudeste 0 -- -- 76
2019-09-12 06:00:00 13.9 15 Sudeste 23 Sudeste 0 -- -- 80
2019-09-12 05:00:00 12.5 7 Sudeste 30 Sudeste 0 -- -- 87
2019-09-12 04:00:00 12.3 15 Sudeste 27 Sudeste 0 -- -- 90
2019-09-12 03:00:00 12.1 11 Sudeste 22 Sudeste 0 -- -- 90
2019-09-12 02:00:00 12.5 3 Sur 20 Este 0 -- -- 89
2019-09-12 01:00:00 12.6 2 Sudeste 10 Sudeste 0 -- -- 90
2019-09-12 00:00:00 13 4 Sudeste 9 Sudeste 0 -- -- 87
2019-09-11 23:00:00 13.3 2 Sudeste 17 Este 0 -- -- 85
2019-09-11 22:00:00 15.4 7 Este 18 Nordeste 0 -- -- 75
2019-09-11 21:00:00 17 5 Norte 19 Nordeste 0 -- -- 68
2019-09-11 20:00:00 21.7 3 Este 16 Este 0 -- -- 50
2019-09-11 19:00:00 25 6 Nordeste 22 Este 0 -- -- 42
2019-09-11 18:00:00 26.2 5 Norte 24 Este 0 -- -- 43
2019-09-11 17:00:00 25.8 8 Nordeste 25 Este 0 -- -- 43
2019-09-11 16:00:00 25.1 8 Norte 22 Noroeste 0 -- -- 44
2019-09-11 15:00:00 23.6 8 Norte 22 Nordeste 0 -- -- 49
2019-09-11 14:00:00 22.8 8 Nordeste 28 Este 0 -- -- 50
2019-09-11 13:00:00 21.9 9 Este 28 Este 0 -- -- 51
2019-09-11 12:00:00 20.8 9 Este 24 Nordeste 0 -- -- 57
2019-09-11 11:00:00 19.2 4 Nordeste 24 Este 0 -- -- 63
2019-09-11 10:00:00 15.6 6 Este 18 Este 0 -- -- 75
2019-09-11 09:00:00 11.2 2 Sudeste 6 Sudeste 0 -- -- 94
2019-09-11 08:00:00 10.3 0 Calma 8 Nordeste 0 -- -- 93
2019-09-11 07:00:00 11.2 0 Calma 10 Nordeste 0 -- -- 90
2019-09-11 06:00:00 10.7 0 Calma 6 Este 0 -- -- 91
2019-09-11 05:00:00 10.4 0 Calma 6 Este 0 -- -- 89
2019-09-11 04:00:00 9.3 2 Sudeste 6 Sudeste 0 -- -- 94
2019-09-11 03:00:00 10 2 Este 9 Este 0 -- -- 89
2019-09-11 02:00:00 9.3 3 Noroeste 8 Norte 0 -- -- 90
2019-09-11 01:00:00 9.5 3 Noroeste 6 Nordeste 0 -- -- 88
2019-09-11 00:00:00 10 0 Calma 6 Nordeste 0 -- -- 86
2019-09-10 23:00:00 11.4 2 Este 15 Norte 0 -- -- 80
2019-09-10 22:00:00 12.8 4 Nordeste 15 Nordeste 0 -- -- 73
2019-09-10 21:00:00 14 5 Nordeste 22 Nordeste 0 -- -- 67
2019-09-10 20:00:00 17.6 3 Noroeste 16 Nordeste 0 -- -- 61
2019-09-10 19:00:00 19.6 6 Norte 21 Nordeste 0 -- -- 53
2019-09-10 18:00:00 20.7 6 Norte 23 Norte 0 -- -- 51
2019-09-10 17:00:00 19.9 7 Norte 21 Nordeste 0 -- -- 53
2019-09-10 16:00:00 19.1 8 Norte 26 Noroeste 0 -- -- 52
2019-09-10 15:00:00 16.9 11 Noroeste 25 Noroeste 0 -- -- 59
2019-09-10 14:00:00 16.2 8 Norte 23 Noroeste 0 -- -- 61
2019-09-10 13:00:00 17.8 7 Norte 24 Nordeste 0 -- -- 60
2019-09-10 12:00:00 13.3 6 Noroeste 14 Noroeste 0 -- -- 84
2019-09-10 11:00:00 15.3 6 Noroeste 14 Norte 0 -- -- 78
2019-09-10 10:00:00 13.4 3 Noroeste 7 Noroeste 0 -- -- 92
2019-09-10 09:00:00 10.3 0 Calma 0 Calma 0 -- -- 99
2019-09-10 08:00:00 9.7 0 Calma 4 Noroeste 0 -- -- 98
2019-09-10 07:00:00 9 0 Calma 3 Noroeste 0 -- -- 98
2019-09-10 06:00:00 9.5 0 Calma 8 Noroeste 0 -- -- 98
2019-09-10 05:00:00 9.7 0 Calma 9 Noroeste 0 -- -- 98
2019-09-10 04:00:00 10.5 2 Noroeste 8 Oeste 0 -- -- 98
2019-09-10 03:00:00 10.1 0 Calma 6 Nordeste 0 -- -- 97
2019-09-10 02:00:00 10.8 0 Calma 4 Nordeste 0 -- -- 97
2019-09-10 01:00:00 10.9 0 Calma 3 Este 0 -- -- 97
2019-09-10 00:00:00 10.6 0 Calma 3 Oeste 0 -- -- 96
2019-09-09 23:00:00 11.6 0 Calma 18 Norte 0.6 -- -- 96
2019-09-09 22:00:00 13.8 8 Noroeste 22 Noroeste 4 -- -- 96
2019-09-09 21:00:00 16 10 Noroeste 21 Noroeste 0 -- -- 81
2019-09-09 20:00:00 17.4 12 Noroeste 23 Noroeste 0 -- -- 70
2019-09-09 19:00:00 18.6 10 Noroeste 22 Noroeste 0 -- -- 65
2019-09-09 18:00:00 22.3 13 Noroeste 28 Noroeste 0 -- -- 48
2019-09-09 17:00:00 22.1 15 Noroeste 28 Noroeste 0 -- -- 51
2019-09-09 16:00:00 21.6 9 Noroeste 23 Noroeste 0 -- -- 53
2019-09-09 15:00:00 20.5 9 Noroeste 23 Noroeste 0 -- -- 56
2019-09-09 14:00:00 19 11 Noroeste 19 Noroeste 0 -- -- 65
2019-09-09 13:00:00 18.7 4 Norte 13 Este 0 -- -- 63
2019-09-09 12:00:00 17.7 4 Norte 13 Este 0 -- -- 69
2019-09-09 11:00:00 17.3 4 Nordeste 10 Nordeste 0 -- -- 70
2019-09-09 10:00:00 12.1 3 Noroeste 5 Noroeste 0 -- -- 95
2019-09-09 09:00:00 10.8 0 Calma 9 Sudeste 0 -- -- 97
2019-09-09 08:00:00 9.2 3 Sudeste 6 Sudeste 0 -- -- 97
2019-09-09 07:00:00 9.4 0 Calma 8 Sudeste 0 -- -- 95
2019-09-09 06:00:00 9.7 0 Calma 8 Sudeste 0 -- -- 92
2019-09-09 05:00:00 11.4 6 Sudeste 9 Sudeste 0 -- -- 89
2019-09-09 04:00:00 11.4 5 Este 9 Sudeste 0 -- -- 89
2019-09-09 03:00:00 12.1 5 Sudeste 9 Sur 0 -- -- 86
2019-09-09 02:00:00 13.1 6 Sudeste 13 Sur 0 -- -- 82
2019-09-09 01:00:00 13.6 6 Sudeste 14 Sudeste 0 -- -- 80
2019-09-09 00:00:00 14 7 Sudeste 15 Sudeste 0 -- -- 80
2019-09-08 23:00:00 15.3 5 Sudeste 9 Sudeste 0 -- -- 79
2019-09-08 22:00:00 16.9 0 Calma 7 Noroeste 0 -- -- 78
2019-09-08 21:00:00 20.2 0 Calma 10 Nordeste 0 -- -- 61
2019-09-08 20:00:00 26.4 4 Norte 15 Nordeste 0 -- -- 45
2019-09-08 19:00:00 27.9 7 Norte 17 Noroeste 0 -- -- 41
2019-09-08 18:00:00 27.8 10 Noroeste 21 Noroeste 0 -- -- 38
2019-09-08 17:00:00 29 6 Nordeste 16 Noroeste 0 -- -- 33
2019-09-08 16:00:00 27.2 8 Norte 18 Noroeste 0 -- -- 40
2019-09-08 15:00:00 26 6 Norte 16 Nordeste 0 -- -- 45
2019-09-08 14:00:00 24.7 6 Norte 18 Noroeste 0 -- -- 48
2019-09-08 13:00:00 23.8 4 Norte 14 Sudeste 0 -- -- 49
2019-09-08 12:00:00 21.6 8 Sudeste 17 Sudeste 0 -- -- 52
2019-09-08 11:00:00 18.9 6 Sudeste 13 Sudeste 0 -- -- 60
2019-09-08 10:00:00 15.8 6 Sudeste 12 Sudeste 0 -- -- 69
2019-09-08 09:00:00 11 4 Sudeste 12 Sudeste 0 -- -- 85
2019-09-08 08:00:00 10.5 4 Sudeste 14 Sudeste 0 -- -- 87
2019-09-08 07:00:00 10.7 4 Sudeste 10 Sudeste 0 -- -- 90
2019-09-08 06:00:00 10.9 0 Calma 7 Este 0 -- -- 89
2019-09-08 05:00:00 10.8 4 Sudeste 8 Sudeste 0 -- -- 90
2019-09-08 04:00:00 11.6 3 Este 5 Este 0 -- -- 87
2019-09-08 03:00:00 11.6 2 Este 6 Sudeste 0 -- -- 87
2019-09-08 02:00:00 11.6 0 Calma 5 Este 0 -- -- 90
2019-09-08 01:00:00 12.9 3 Este 14 Nordeste 0 -- -- 86
2019-09-08 00:00:00 13.5 4 Nordeste 21 Este 0 -- -- 82
2019-09-07 23:00:00 14.5 6 Nordeste 22 Nordeste 0 -- -- 78
2019-09-07 22:00:00 15.5 4 Este 21 Este 0 -- -- 72
2019-09-07 21:00:00 17.5 4 Este 21 Nordeste 0 -- -- 61
2019-09-07 20:00:00 22.4 8 Este 22 Este 0 -- -- 40
2019-09-07 19:00:00 24 10 Nordeste 27 Nordeste 0 -- -- 31
2019-09-07 18:00:00 27.1 8 Nordeste 28 Nordeste 0 -- -- 23
2019-09-07 17:00:00 27 12 Nordeste 30 Nordeste 0 -- -- 23
2019-09-07 16:00:00 26.2 8 Norte 30 Nordeste 0 -- -- 26
2019-09-07 15:00:00 25.7 8 Nordeste 27 Nordeste 0 -- -- 29
2019-09-07 14:00:00 24.8 10 Nordeste 29 Nordeste 0 -- -- 28
2019-09-07 13:00:00 23.3 10 Este 27 Nordeste 0 -- -- 35
2019-09-07 12:00:00 21.5 5 Norte 15 Este 0 -- -- 48
2019-09-07 11:00:00 19.2 5 Noroeste 12 Este 0 -- -- 52
2019-09-07 10:00:00 17.8 2 Sur 9 Noroeste 0 -- -- 55
2019-09-07 09:00:00 10.5 0 Calma 8 Este 0 -- -- 79
2019-09-07 08:00:00 9.6 0 Calma 6 Noroeste 0 -- -- 81
2019-09-07 07:00:00 10.6 5 Sudeste 10 Sudeste 0 -- -- 77
2019-09-07 06:00:00 9.3 0 Calma 8 Noroeste 0 -- -- 86
2019-09-07 05:00:00 9.8 2 Norte 13 Noroeste 0 -- -- 85
2019-09-07 04:00:00 11.7 4 Este 11 Sudeste 0 -- -- 77
2019-09-07 03:00:00 12.1 3 Este 11 Sudeste 0 -- -- 74
2019-09-07 02:00:00 12.4 3 Este 14 Este 0 -- -- 76
2019-09-07 01:00:00 11.9 0 Calma 14 Noroeste 0 -- -- 84
2019-09-07 00:00:00 12.3 0 Calma 6 Nordeste 0 -- -- 84
2019-09-06 23:00:00 13.6 2 Sudeste 10 Oeste 0 -- -- 79
2019-09-06 22:00:00 15.3 4 Sudeste 22 Este 0 -- -- 72
2019-09-06 21:00:00 16.8 6 Nordeste 21 Nordeste 0 -- -- 67
2019-09-06 20:00:00 21 8 Este 27 Nordeste 0 -- -- 54
2019-09-06 19:00:00 24.6 8 Nordeste 27 Este 0 -- -- 46
2019-09-06 18:00:00 24.9 12 Este 30 Este 0 -- -- 41
2019-09-06 17:00:00 25.8 10 Nordeste 27 Nordeste 0 -- -- 38
2019-09-06 16:00:00 26.1 9 Nordeste 23 Este 0 -- -- 35
2019-09-06 15:00:00 23.9 12 Este 30 Sudeste 0 -- -- 39
2019-09-06 14:00:00 22.7 13 Este 27 Este 0 -- -- 43
2019-09-06 13:00:00 21.3 11 Este 27 Sudeste 0 -- -- 50
2019-09-06 12:00:00 19.1 14 Este 31 Sudeste 0 -- -- 55
2019-09-06 11:00:00 18.2 10 Sudeste 30 Este 0 -- -- 59
2019-09-06 10:00:00 15.2 9 Sudeste 20 Este 0 -- -- 70
2019-09-06 09:00:00 11.1 5 Sudeste 15 Sudeste 0 -- -- 86
2019-09-06 08:00:00 10.5 7 Sudeste 16 Sudeste 0 -- -- 88
2019-09-06 07:00:00 10.6 5 Sudeste 15 Sudeste 0 -- -- 88
2019-09-06 06:00:00 10.9 6 Sudeste 15 Nordeste 0 -- -- 88
2019-09-06 05:00:00 11.1 5 Sudeste 12 Este 0 -- -- 87
2019-09-06 04:00:00 11.2 4 Este 11 Sudeste 0 -- -- 87
2019-09-06 03:00:00 11.1 4 Sudeste 8 Sudeste 0 -- -- 88
2019-09-06 02:00:00 11.3 0 Calma 10 Sudeste 0 -- -- 87
2019-09-06 01:00:00 12 2 Este 16 Sudeste 0 -- -- 83
2019-09-06 00:00:00 11.9 0 Calma 4 Norte 0 -- -- 83
2019-09-05 23:00:00 13 2 Sudeste 13 Nordeste 0 -- -- 78
2019-09-05 22:00:00 14.2 6 Nordeste 24 Este 0 -- -- 75
2019-09-05 21:00:00 15.8 6 Nordeste 30 Nordeste 0 -- -- 69
2019-09-05 20:00:00 19.7 8 Nordeste 28 Nordeste 0 -- -- 56
2019-09-05 19:00:00 22.6 8 Este 32 Nordeste 0 -- -- 48
2019-09-05 18:00:00 23.4 10 Este 35 Nordeste 0 -- -- 45
2019-09-05 17:00:00 23.5 11 Nordeste 36 Norte 0 -- -- 45
2019-09-05 16:00:00 22.9 13 Nordeste 35 Este 0 -- -- 49
2019-09-05 15:00:00 23 11 Nordeste 38 Nordeste 0 -- -- 46
2019-09-05 14:00:00 21.8 15 Este 41 Este 0 -- -- 48
2019-09-05 13:00:00 21.6 15 Este 40 Este 0 -- -- 45
2019-09-05 12:00:00 20.3 15 Este 43 Este 0 -- -- 48
2019-09-05 11:00:00 18.7 13 Este 40 Este 0 -- -- 54
2019-09-05 10:00:00 17.2 7 Este 21 Este 0 -- -- 65
2019-09-05 09:00:00 12.9 6 Este 27 Sudeste 0 -- -- 82
2019-09-05 08:00:00 12 3 Sudeste 19 Este 0 -- -- 84
2019-09-05 07:00:00 12.5 6 Este 27 Este 0 -- -- 82
2019-09-05 06:00:00 13.6 7 Este 24 Nordeste 0 -- -- 79
2019-09-05 05:00:00 14 6 Este 24 Este 0 -- -- 80
2019-09-05 04:00:00 14.4 8 Nordeste 23 Nordeste 0 -- -- 79
2019-09-05 03:00:00 15.1 11 Este 31 Este 0 -- -- 78
2019-09-05 02:00:00 15.6 7 Este 38 Este 0 -- -- 77
2019-09-05 01:00:00 15.8 12 Este 32 Nordeste 0 -- -- 76
2019-09-05 00:00:00 16.2 8 Este 31 Este 0 -- -- 76
2019-09-04 23:00:00 16.2 7 Nordeste 27 Este 0 -- -- 73
2019-09-04 22:00:00 16.2 6 Nordeste 23 Este 0 -- -- 67
2019-09-04 21:00:00 18.1 7 Este 23 Nordeste 0 -- -- 54
2019-09-04 20:00:00 23 9 Nordeste 24 Nordeste 0 -- -- 45
2019-09-04 19:00:00 25.9 9 Nordeste 26 Este 0 -- -- 40
2019-09-04 18:00:00 27.2 11 Nordeste 27 Nordeste 0 -- -- 36
2019-09-04 17:00:00 27.7 8 Nordeste 32 Este 0 -- -- 38
2019-09-04 16:00:00 27.4 9 Nordeste 31 Nordeste 0 -- -- 39
2019-09-04 15:00:00 27 8 Nordeste 27 Este 0 -- -- 38
2019-09-04 14:00:00 25.7 9 Nordeste 26 Norte 0 -- -- 46
2019-09-04 13:00:00 24.5 6 Norte 19 Este 0 -- -- 53
2019-09-04 12:00:00 23.2 6 Nordeste 20 Este 0 -- -- 57
2019-09-04 11:00:00 21.3 8 Nordeste 19 Este 0 -- -- 62
2019-09-04 10:00:00 19.1 3 Oeste 5 Noroeste 0 -- -- 72
2019-09-04 09:00:00 13.2 0 Calma 5 Noroeste 0 -- -- 95
2019-09-04 08:00:00 12.9 0 Calma 4 Este 0 -- -- 91
2019-09-04 07:00:00 13.8 4 Este 7 Este 0 -- -- 90
2019-09-04 06:00:00 13.3 0 Calma 4 Noroeste 0 -- -- 93
2019-09-04 05:00:00 15.1 0 Calma 9 Sudeste 0 -- -- 84
2019-09-04 04:00:00 16.5 5 Sudeste 9 Sudeste 0 -- -- 80
2019-09-04 03:00:00 15.7 2 Sur 4 Sudeste 0 -- -- 84
2019-09-04 02:00:00 18.2 6 Este 13 Sudeste 0 -- -- 75
2019-09-04 01:00:00 19.6 8 Sudeste 14 Este 0 -- -- 71
2019-09-04 00:00:00 20.8 9 Sudeste 14 Sudeste 0 -- -- 63
2019-09-03 23:00:00 21.4 5 Sudeste 9 Sudeste 0 -- -- 65
2019-09-03 22:00:00 22.6 0 Calma 5 Sudeste 0 -- -- 63
2019-09-03 21:00:00 25.9 0 Calma 12 Noroeste 0 -- -- 51
2019-09-03 20:00:00 30.1 8 Noroeste 20 Noroeste 0 -- -- 42
2019-09-03 19:00:00 32.1 10 Noroeste 23 Noroeste 0 -- -- 36
2019-09-03 18:00:00 32.7 10 Noroeste 28 Noroeste 0 -- -- 34
2019-09-03 17:00:00 32.9 9 Noroeste 21 Noroeste 0 -- -- 33
2019-09-03 16:00:00 32.6 5 Norte 17 Noroeste 0 -- -- 31
2019-09-03 15:00:00 33.1 4 Sudeste 17 Sudeste 0 -- -- 29
2019-09-03 14:00:00 30.3 9 Sudeste 18 Sur 0 -- -- 30
2019-09-03 13:00:00 29.4 10 Sudeste 29 Sudeste 0 -- -- 32
2019-09-03 12:00:00 26.8 16 Sudeste 30 Sudeste 0 -- -- 34
2019-09-03 11:00:00 24.4 17 Sudeste 30 Sudeste 0 -- -- 40
2019-09-03 10:00:00 21 15 Sudeste 28 Este 0 -- -- 49
2019-09-03 09:00:00 17.7 16 Sudeste 31 Sudeste 0 -- -- 59
2019-09-03 08:00:00 16.6 18 Sudeste 31 Sudeste 0 -- -- 70
2019-09-03 07:00:00 15.1 15 Sudeste 29 Sudeste 0 -- -- 80
2019-09-03 06:00:00 14.8 17 Sudeste 29 Sudeste 0 -- -- 83
2019-09-03 05:00:00 14.5 16 Sudeste 28 Sudeste 0 -- -- 84
2019-09-03 04:00:00 14.9 13 Sudeste 22 Sudeste 0 -- -- 83
2019-09-03 03:00:00 14.7 12 Sudeste 26 Sudeste 0 -- -- 84
2019-09-03 02:00:00 14.7 13 Sudeste 24 Este 0 -- -- 84
2019-09-03 01:00:00 15.6 11 Sudeste 30 Sudeste 0 -- -- 81
2019-09-03 00:00:00 16.2 13 Sudeste 25 Sur 0 -- -- 79
2019-09-02 23:00:00 16.8 14 Sudeste 24 Sur 0 -- -- 76
2019-09-02 22:00:00 17.8 8 Sudeste 19 Sudeste 0 -- -- 71
2019-09-02 21:00:00 20.4 5 Este 13 Nordeste 0 -- -- 62
2019-09-02 20:00:00 26 6 Este 14 Este 0 -- -- 46
2019-09-02 19:00:00 28.8 6 Nordeste 19 Nordeste 0 -- -- 42
2019-09-02 18:00:00 29.4 7 Nordeste 20 Este 0 -- -- 41
2019-09-02 17:00:00 29.4 6 Este 23 Este 0 -- -- 40
2019-09-02 16:00:00 27.9 6 Nordeste 23 Este 0 -- -- 43
2019-09-02 15:00:00 26.1 10 Este 24 Este 0 -- -- 46
2019-09-02 14:00:00 25.1 9 Este 22 Este 0 -- -- 49
2019-09-02 13:00:00 24 9 Este 23 Este 0 -- -- 49
2019-09-02 12:00:00 21.2 14 Sudeste 23 Sudeste 0 -- -- 56
2019-09-02 11:00:00 19.4 10 Sudeste 25 Sudeste 0 -- -- 61
2019-09-02 10:00:00 17.7 8 Sudeste 15 Sudeste 0 -- -- 66
2019-09-02 09:00:00 13.2 8 Sudeste 16 Sudeste 0 -- -- 84
2019-09-02 08:00:00 12.3 5 Sudeste 14 Este 0 -- -- 87
2019-09-02 07:00:00 12.7 4 Sudeste 12 Este 0 -- -- 85
2019-09-02 06:00:00 12.9 4 Sudeste 13 Sudeste 0 -- -- 85
2019-09-02 05:00:00 13.5 2 Este 12 Este 0 -- -- 83
2019-09-02 04:00:00 13.7 0 Calma 13 Este 0 -- -- 82
2019-09-02 03:00:00 14 3 Este 16 Este 0.2 -- -- 81
2019-09-02 02:00:00 14.5 4 Nordeste 28 Nordeste 0 -- -- 79
2019-09-02 01:00:00 14.7 8 Este 31 Este 0 -- -- 79
2019-09-02 00:00:00 14.7 9 Este 23 Nordeste 0 -- -- 80
2019-09-01 23:00:00 14.7 7 Este 22 Nordeste 0 -- -- 80
2019-09-01 22:00:00 14.9 8 Este 28 Este 0 -- -- 78
2019-09-01 21:00:00 15.5 10 Este 28 Este 0 -- -- 74
2019-09-01 20:00:00 16.6 5 Nordeste 25 Nordeste 0 -- -- 69
2019-09-01 19:00:00 17.1 7 Este 28 Nordeste 0 -- -- 70
2019-09-01 18:00:00 18.2 7 Nordeste 26 Nordeste 0 -- -- 67
2019-09-01 17:00:00 19.2 9 Nordeste 30 Este 0 -- -- 64
2019-09-01 16:00:00 21 8 Nordeste 24 Este 0 -- -- 61
2019-09-01 15:00:00 18.9 6 Nordeste 26 Nordeste 0 -- -- 68
2019-09-01 14:00:00 19 7 Nordeste 23 Este 0 -- -- 68
2019-09-01 13:00:00 18.4 8 Nordeste 25 Nordeste 0 -- -- 71
2019-09-01 12:00:00 16.7 5 Nordeste 20 Nordeste 0 -- -- 80
2019-09-01 11:00:00 15.1 4 Norte 16 Nordeste 0 -- -- 94
2019-09-01 10:00:00 14.8 2 Nordeste 8 Este 0 -- -- 95
2019-09-01 09:00:00 13.3 0 Calma 4 Noroeste 0 -- -- 97
2019-09-01 08:00:00 13 0 Calma 4 Nordeste 0 -- -- 97
2019-09-01 07:00:00 12.9 0 Calma 4 Nordeste 0 -- -- 96
2019-09-01 06:00:00 13.2 0 Calma 8 Sudeste 0 -- -- 95
2019-09-01 05:00:00 13.3 3 Sudeste 11 Sudeste 0 -- -- 96
2019-09-01 04:00:00 13.1 5 Sudeste 9 Sudeste 0 -- -- 97
2019-09-01 03:00:00 13.2 3 Este 5 Este 0 -- -- 96
2019-09-01 02:00:00 12.9 0 Calma 4 Este 0 -- -- 96
2019-09-01 01:00:00 13.2 0 Calma 3 Noroeste 0 -- -- 94
2019-09-01 00:00:00 14.5 2 Noroeste 3 Noroeste 0 -- -- 90
2019-08-31 23:00:00 14.9 0 Calma 11 Noroeste 0 -- -- 89
2019-08-31 22:00:00 15.4 3 Noroeste 10 Noroeste 0 -- -- 87
2019-08-31 21:00:00 17.6 6 Noroeste 14 Norte 0 -- -- 81
2019-08-31 20:00:00 22.1 9 Noroeste 20 Noroeste 0 -- -- 65
2019-08-31 19:00:00 23.8 9 Noroeste 23 Noroeste 0 -- -- 60
2019-08-31 18:00:00 24.6 9 Noroeste 31 Norte 0 -- -- 59
2019-08-31 17:00:00 24.9 11 Noroeste 29 Noroeste 0 -- -- 59
2019-08-31 16:00:00 25.8 13 Noroeste 27 Noroeste 0 -- -- 55
2019-08-31 15:00:00 25.4 12 Noroeste 22 Noroeste 0 -- -- 55
2019-08-31 14:00:00 24.9 10 Noroeste 19 Noroeste 0 -- -- 54
2019-08-31 13:00:00 23.3 9 Noroeste 16 Norte 0 -- -- 62
2019-08-31 12:00:00 22.4 7 Noroeste 13 Noroeste 0 -- -- 68
2019-08-31 11:00:00 19.7 5 Noroeste 12 Noroeste 0 -- -- 80
2019-08-31 10:00:00 18.1 3 Norte 6 Nordeste 0 -- -- 94
2019-08-31 09:00:00 16.3 2 Noroeste 3 Noroeste 0 -- -- 98
2019-08-31 08:00:00 16 0 Calma 9 Noroeste 0 -- -- 98
2019-08-31 07:00:00 15.9 0 Calma 5 Noroeste 0.2 -- -- 98
2019-08-31 06:00:00 15.6 2 Noroeste 3 Noroeste 0 -- -- 97
2019-08-31 05:00:00 15.5 0 Calma 3 Noroeste 0 -- -- 95
2019-08-31 04:00:00 15.7 0 Calma 8 Este 0 -- -- 94
2019-08-31 03:00:00 15.3 5 Este 6 Nordeste 0 -- -- 91
2019-08-31 02:00:00 15.9 3 Nordeste 8 Este 0 -- -- 90
2019-08-31 01:00:00 16.8 5 Este 8 Este 0 -- -- 90
2019-08-31 00:00:00 18.4 0 Calma 8 Sudeste 0 -- -- 86
2019-08-30 23:00:00 18.9 2 Sudeste 4 Este 0 -- -- 88
2019-08-30 22:00:00 20 2 Norte 8 Noroeste 0 -- -- 83
2019-08-30 21:00:00 22.6 5 Norte 14 Noroeste 0 -- -- 70
2019-08-30 20:00:00 28.6 7 Noroeste 19 Noroeste 0 -- -- 44
2019-08-30 19:00:00 30 9 Noroeste 18 Oeste 0 -- -- 44
2019-08-30 18:00:00 30.2 12 Noroeste 24 Noroeste 0 -- -- 46
2019-08-30 17:00:00 30.3 13 Noroeste 24 Noroeste 0 -- -- 50
2019-08-30 16:00:00 28.9 9 Noroeste 22 Noroeste 0 -- -- 56
2019-08-30 15:00:00 28.1 11 Noroeste 21 Noroeste 0 -- -- 58
2019-08-30 14:00:00 27.4 9 Noroeste 18 Noroeste 0 -- -- 60
2019-08-30 13:00:00 27.1 9 Noroeste 16 Noroeste 0 -- -- 62
2019-08-30 12:00:00 26.5 5 Sudeste 12 Sudeste 0 -- -- 58
2019-08-30 11:00:00 22.8 5 Sur 19 Sudeste 0 -- -- 69
2019-08-30 10:00:00 18.6 9 Sudeste 18 Sudeste 0 -- -- 82
2019-08-30 09:00:00 14.7 8 Sudeste 16 Sudeste 0 -- -- 98
2019-08-30 08:00:00 14.1 9 Sudeste 16 Este 0 -- -- 99
2019-08-30 07:00:00 14.4 7 Sudeste 15 Sudeste 0 -- -- 98
2019-08-30 06:00:00 15 6 Sudeste 15 Sur 0 -- -- 98
2019-08-30 05:00:00 15.1 8 Sur 16 Sudeste 0 -- -- 97
2019-08-30 04:00:00 15.4 9 Sur 18 Sudeste 0 -- -- 96
2019-08-30 03:00:00 15.7 6 Sudeste 19 Este 0 -- -- 94
2019-08-30 02:00:00 16.4 12 Sudeste 23 Sur 0 -- -- 93
2019-08-30 01:00:00 16.8 10 Sudeste 18 Sudeste 0 -- -- 92
2019-08-30 00:00:00 17.2 9 Sudeste 17 Sudeste 0 -- -- 91
2019-08-29 23:00:00 18 5 Sudeste 10 Sudeste 0 -- -- 87
2019-08-29 22:00:00 19.9 3 Este 9 Este 0 -- -- 81
2019-08-29 21:00:00 22 5 Noroeste 16 Noroeste 0 -- -- 77
2019-08-29 20:00:00 25.6 11 Noroeste 22 Noroeste 0 -- -- 64
2019-08-29 19:00:00 27.7 12 Noroeste 21 Noroeste 0 -- -- 55
2019-08-29 18:00:00 28.1 10 Noroeste 22 Noroeste 0 -- -- 54
2019-08-29 17:00:00 28.6 9 Noroeste 22 Oeste 0 -- -- 52
2019-08-29 16:00:00 27 10 Noroeste 22 Noroeste 0 -- -- 56
2019-08-29 15:00:00 26 8 Noroeste 19 Noroeste 0 -- -- 60
2019-08-29 14:00:00 25.3 4 Norte 18 Noroeste 0 -- -- 65
2019-08-29 13:00:00 23.9 8 Noroeste 17 Noroeste 0 -- -- 66
2019-08-29 12:00:00 22.5 4 Noroeste 11 Noroeste 0 -- -- 67
2019-08-29 11:00:00 20 3 Oeste 10 Noroeste 0 -- -- 74
2019-08-29 10:00:00 18 3 Sudeste 15 Sudeste 0 -- -- 82
2019-08-29 09:00:00 12.6 6 Sudeste 16 Sudeste 0 -- -- 98
2019-08-29 08:00:00 12.1 8 Sudeste 13 Sudeste 0 -- -- 98
2019-08-29 07:00:00 11.3 3 Sur 7 Este 0 -- -- 98
2019-08-29 06:00:00 12.1 2 Este 8 Sudeste 0 -- -- 97
2019-08-29 05:00:00 12.4 3 Sudeste 13 Sudeste 0 -- -- 96
2019-08-29 04:00:00 13.2 5 Sudeste 9 Este 0 -- -- 96
2019-08-29 03:00:00 13.7 3 Este 5 Nordeste 0 -- -- 95
2019-08-29 02:00:00 13.4 0 Calma 3 Nordeste 0 -- -- 93
2019-08-29 01:00:00 14.3 0 Calma 3 Nordeste 0 -- -- 92
2019-08-29 00:00:00 14.8 0 Calma 4 Oeste 0 -- -- 92
2019-08-28 23:00:00 15.4 0 Calma 4 Oeste 0 -- -- 90
2019-08-28 22:00:00 16.9 2 Oeste 10 Noroeste 0 -- -- 84
2019-08-28 21:00:00 19.1 5 Noroeste 21 Noroeste 0 -- -- 77
2019-08-28 20:00:00 24.1 10 Noroeste 17 Noroeste 0 -- -- 60
2019-08-28 19:00:00 25.8 9 Noroeste 22 Noroeste 0 -- -- 56
2019-08-28 18:00:00 26.2 10 Noroeste 23 Noroeste 0 -- -- 55
2019-08-28 17:00:00 25.4 10 Noroeste 22 Oeste 0 -- -- 59
2019-08-28 16:00:00 25 8 Noroeste 19 Noroeste 0 -- -- 61
2019-08-28 15:00:00 24.5 9 Noroeste 18 Noroeste 0 -- -- 65
2019-08-28 14:00:00 23.1 7 Noroeste 17 Noroeste 0 -- -- 64
2019-08-28 13:00:00 21.5 6 Noroeste 14 Noroeste 0 -- -- 70
2019-08-28 12:00:00 19.8 5 Noroeste 11 Noroeste 0 -- -- 78
2019-08-28 11:00:00 18 5 Noroeste 10 Noroeste 0 -- -- 87
2019-08-28 10:00:00 17.8 0 Calma 8 Sur 0 -- -- 88
2019-08-28 09:00:00 16.7 0 Calma 4 Este 0 -- -- 95
2019-08-28 08:00:00 16.1 0 Calma 4 Noroeste 0 -- -- 97
2019-08-28 07:00:00 16.1 2 Sudeste 5 Sudeste 0 -- -- 96
2019-08-28 06:00:00 16.1 3 Noroeste 5 Noroeste 0 -- -- 95
2019-08-28 05:00:00 16.2 0 Calma 5 Noroeste 0 -- -- 95
2019-08-28 04:00:00 16.1 0 Calma 5 Noroeste 0 -- -- 95
2019-08-28 03:00:00 16 2 Noroeste 3 Sudeste 0 -- -- 95
2019-08-28 02:00:00 16.2 0 Calma 5 Noroeste 0 -- -- 95
2019-08-28 01:00:00 16.1 0 Calma 6 Noroeste 0 -- -- 95
2019-08-28 00:00:00 16.4 4 Noroeste 7 Noroeste 0 -- -- 93
2019-08-27 23:00:00 17.5 6 Noroeste 11 Noroeste 0 -- -- 89
2019-08-27 22:00:00 18.3 4 Noroeste 12 Noroeste 0 -- -- 88
2019-08-27 21:00:00 19.5 9 Noroeste 19 Noroeste 0 -- -- 84
2019-08-27 20:00:00 22.7 12 Noroeste 21 Noroeste 0 -- -- 74
2019-08-27 19:00:00 27.2 8 Noroeste 23 Noroeste 0 -- -- 56
2019-08-27 18:00:00 26.6 11 Noroeste 25 Noroeste 0 -- -- 58
2019-08-27 17:00:00 27.3 10 Noroeste 22 Noroeste 0 -- -- 57
2019-08-27 16:00:00 25.9 9 Noroeste 24 Noroeste 0 -- -- 61
2019-08-27 15:00:00 26.5 8 Noroeste 23 Noroeste 0 -- -- 58
2019-08-27 14:00:00 27.7 4 Sudeste 10 Noroeste 0 -- -- 52
2019-08-27 13:00:00 25.7 5 Sur 13 Sudeste 0 -- -- 57
2019-08-27 12:00:00 22.8 8 Sur 19 Sudeste 0 -- -- 67
2019-08-27 11:00:00 21.8 5 Sur 12 Sur 0 -- -- 70
2019-08-27 10:00:00 17.5 4 Sur 8 Sudeste 0 -- -- 89
2019-08-27 09:00:00 16.5 5 Sudeste 11 Sudeste 0 -- -- 93
2019-08-27 08:00:00 16.4 4 Sudeste 11 Sudeste 0 -- -- 94
2019-08-27 07:00:00 16.4 2 Sudeste 6 Sudeste 0 -- -- 94
2019-08-27 06:00:00 16.4 2 Sudeste 11 Este 0 -- -- 94
2019-08-27 05:00:00 16.3 0 Calma 4 Sudeste 0 -- -- 96
2019-08-27 04:00:00 16 3 Sudeste 5 Sudeste 0 -- -- 97
2019-08-27 03:00:00 15.5 0 Calma 5 Oeste 0 -- -- 97
2019-08-27 02:00:00 15.3 0 Calma 2 Norte 0 -- -- 95
2019-08-27 01:00:00 16.3 3 Sudeste 10 Sudeste 0 -- -- 92
2019-08-27 00:00:00 17.8 0 Calma 5 Norte 0 -- -- 86
2019-08-26 23:00:00 19.1 0 Calma 12 Noroeste 0 -- -- 87
2019-08-26 22:00:00 19.8 6 Noroeste 12 Noroeste 0 -- -- 85
2019-08-26 21:00:00 21.2 6 Noroeste 14 Noroeste 0 -- -- 81
2019-08-26 20:00:00 23.4 10 Noroeste 21 Noroeste 0 -- -- 74
2019-08-26 19:00:00 25 5 Norte 18 Noroeste 0.4 -- -- 69
2019-08-26 18:00:00 28.1 7 Noroeste 17 Noroeste 0 -- -- 51
2019-08-26 17:00:00 27.9 5 Sudeste 13 Nordeste 0 -- -- 49
2019-08-26 16:00:00 25.4 7 Norte 21 Noroeste 0 -- -- 62
2019-08-26 15:00:00 26.6 10 Noroeste 23 Noroeste 0 -- -- 55
2019-08-26 14:00:00 28.8 6 Sur 16 Sudeste 0 -- -- 42
2019-08-26 13:00:00 27.6 6 Este 16 Sudeste 0 -- -- 45
2019-08-26 12:00:00 25.7 5 Noroeste 15 Noroeste 0 -- -- 58
2019-08-26 11:00:00 26.2 3 Sudeste 12 Nordeste 0 -- -- 51
2019-08-26 10:00:00 20.6 8 Nordeste 25 Sudeste 0 -- -- 66
2019-08-26 09:00:00 15.9 17 Sudeste 25 Este 0 -- -- 82
2019-08-26 08:00:00 14.8 9 Sudeste 18 Sudeste 0 -- -- 91
2019-08-26 07:00:00 14.8 7 Sudeste 18 Sudeste 0 -- -- 93
2019-08-26 06:00:00 14.8 7 Sudeste 15 Sudeste 0 -- -- 90
2019-08-26 05:00:00 15.9 3 Sudeste 14 Este 0 -- -- 83
2019-08-26 04:00:00 16.2 6 Sudeste 13 Sudeste 0 -- -- 85
2019-08-26 03:00:00 16.7 2 Noroeste 9 Este 0 -- -- 82
2019-08-26 02:00:00 16.6 3 Este 19 Sudeste 0 -- -- 86
2019-08-26 01:00:00 18.1 9 Sudeste 17 Sudeste 0 -- -- 81
2019-08-26 00:00:00 19.2 4 Sudeste 14 Sudeste 0 -- -- 79
2019-08-25 23:00:00 20.1 5 Este 24 Sudeste 0 -- -- 77
2019-08-25 22:00:00 21.2 12 Sudeste 22 Sudeste 0 -- -- 70
2019-08-25 21:00:00 22.5 5 Sudeste 15 Este 0 -- -- 60
2019-08-25 20:00:00 25.5 6 Este 15 Este 0 -- -- 52
2019-08-25 19:00:00 26.8 5 Noroeste 20 Oeste 0 -- -- 53
2019-08-25 18:00:00 28.4 6 Noroeste 21 Noroeste 0 -- -- 54
2019-08-25 17:00:00 28.8 7 Nordeste 17 Nordeste 0 -- -- 51
2019-08-25 16:00:00 27.1 5 Norte 15 Noroeste 0 -- -- 58
2019-08-25 15:00:00 24.3 9 Noroeste 18 Noroeste 0 -- -- 62
2019-08-25 14:00:00 22.8 5 Noroeste 13 Noroeste 0 -- -- 68
2019-08-25 13:00:00 22.8 4 Oeste 11 Sudeste 0 -- -- 67
2019-08-25 12:00:00 18.6 6 Sudeste 14 Sudeste 0 -- -- 80
2019-08-25 11:00:00 16.5 6 Sudeste 16 Este 0 -- -- 87
2019-08-25 10:00:00 15.7 8 Sudeste 16 Sur 0 -- -- 88
2019-08-25 09:00:00 14.5 13 Sudeste 25 Sudeste 0 -- -- 95
2019-08-25 08:00:00 14.2 2 Sudeste 10 Sudeste 0 -- -- 96
2019-08-25 07:00:00 14.3 4 Noroeste 9 Sudeste 0 -- -- 96
2019-08-25 06:00:00 14 4 Este 14 Sudeste 0 -- -- 96
2019-08-25 05:00:00 13.9 8 Sudeste 16 Sudeste 0 -- -- 96
2019-08-25 04:00:00 14 3 Sudeste 12 Sudeste 0 -- -- 96
2019-08-25 03:00:00 14.1 3 Sur 10 Sudeste 0 -- -- 95
2019-08-25 02:00:00 14.1 0 Calma 7 Noroeste 0 -- -- 95
2019-08-25 01:00:00 13.9 2 Noroeste 7 Noroeste 0 -- -- 94
2019-08-25 00:00:00 14.3 0 Calma 7 Noroeste 0 -- -- 92
2019-08-24 23:00:00 15.1 0 Calma 5 Noroeste 0 -- -- 89
2019-08-24 22:00:00 16.9 2 Noroeste 13 Noroeste 0 -- -- 84
2019-08-24 21:00:00 19.6 7 Noroeste 15 Noroeste 0 -- -- 74
2019-08-24 20:00:00 24.3 7 Noroeste 20 Noroeste 0 -- -- 61
2019-08-24 19:00:00 28.4 7 Noroeste 19 Noroeste 0 -- -- 43
2019-08-24 18:00:00 26.9 9 Noroeste 19 Noroeste 0 -- -- 41
2019-08-24 17:00:00 26.5 9 Noroeste 22 Noroeste 0 -- -- 44
2019-08-24 16:00:00 25.6 8 Noroeste 19 Noroeste 0 -- -- 52
2019-08-24 15:00:00 23.7 10 Noroeste 20 Noroeste 0 -- -- 59
2019-08-24 14:00:00 21.7 9 Noroeste 16 Noroeste 0 -- -- 68
2019-08-24 13:00:00 19.3 6 Noroeste 12 Noroeste 0 -- -- 76
2019-08-24 12:00:00 15.7 3 Noroeste 8 Noroeste 0 -- -- 95
2019-08-24 11:00:00 14.5 4 Noroeste 8 Noroeste 0 -- -- 97
2019-08-24 10:00:00 13.7 3 Oeste 6 Noroeste 0 -- -- 98
2019-08-24 09:00:00 13.4 0 Calma 5 Norte 0 -- -- 98
2019-08-24 08:00:00 13.6 0 Calma 4 Noroeste 0 -- -- 98
2019-08-24 07:00:00 13.6 0 Calma 5 Noroeste 0 -- -- 97
2019-08-24 06:00:00 13.9 0 Calma 9 Noroeste 0 -- -- 97
2019-08-24 05:00:00 14.1 0 Calma 6 Noroeste 0 -- -- 95
2019-08-24 04:00:00 14.9 0 Calma 2 Este 0 -- -- 88
2019-08-24 03:00:00 15.6 0 Calma 5 Sudeste 0 -- -- 79
2019-08-24 02:00:00 16.6 0 Calma 4 Nordeste 0 -- -- 73
2019-08-24 01:00:00 17.2 2 Sudeste 15 Sudeste 0 -- -- 78
2019-08-24 00:00:00 19.3 6 Este 12 Este 0 -- -- 70
2019-08-23 23:00:00 20.1 0 Calma 3 Nordeste 0 -- -- 69
2019-08-23 22:00:00 21.8 0 Calma 5 Noroeste 0 -- -- 64
2019-08-23 21:00:00 24.1 4 Noroeste 18 Noroeste 0 -- -- 61
2019-08-23 20:00:00 29.1 7 Noroeste 23 Noroeste 0 -- -- 48
2019-08-23 19:00:00 31.5 12 Noroeste 22 Noroeste 0 -- -- 37
2019-08-23 18:00:00 33.9 6 Noroeste 19 Noroeste 0 -- -- 36
2019-08-23 17:00:00 33.3 11 Noroeste 26 Noroeste 0 -- -- 37
2019-08-23 16:00:00 32.1 13 Noroeste 24 Noroeste 0 -- -- 44
2019-08-23 15:00:00 32.9 9 Noroeste 21 Noroeste 0 -- -- 33
2019-08-23 14:00:00 34 5 Sur 18 Sudeste 0 -- -- 28
2019-08-23 13:00:00 31.9 13 Sudeste 23 Sudeste 0 -- -- 25
2019-08-23 12:00:00 30.4 15 Sudeste 27 Sudeste 0 -- -- 25
2019-08-23 11:00:00 28.4 14 Sudeste 23 Sudeste 0 -- -- 31
2019-08-23 10:00:00 26.2 14 Sudeste 30 Sudeste 0 -- -- 33
2019-08-23 09:00:00 22.4 20 Sudeste 30 Sudeste 0 -- -- 43
2019-08-23 08:00:00 22.1 19 Sudeste 27 Sudeste 0 -- -- 45
2019-08-23 07:00:00 21.3 17 Sudeste 27 Sudeste 0 -- -- 57
2019-08-23 06:00:00 19.9 16 Sudeste 24 Sudeste 0 -- -- 62
2019-08-23 05:00:00 19.5 14 Sudeste 22 Sudeste 0 -- -- 64
2019-08-23 04:00:00 19.4 13 Este 19 Sudeste 0 -- -- 66
2019-08-23 03:00:00 22 10 Sudeste 17 Sudeste 0 -- -- 56
2019-08-23 02:00:00 22 9 Sudeste 15 Sudeste 0 -- -- 58
2019-08-23 01:00:00 21.9 9 Sudeste 15 Sudeste 0 -- -- 61
2019-08-23 00:00:00 22.3 6 Sudeste 9 Sudeste 0 -- -- 58
2019-08-22 23:00:00 23.2 3 Este 9 Nordeste 0 -- -- 60
2019-08-22 22:00:00 24.2 0 Calma 5 Noroeste 0 -- -- 58
2019-08-22 21:00:00 26.7 4 Noroeste 15 Norte 0 -- -- 51
2019-08-22 20:00:00 30.6 9 Noroeste 14 Noroeste 0 -- -- 43
2019-08-22 19:00:00 31.7 5 Noroeste 14 Noroeste 0 -- -- 41
2019-08-22 18:00:00 33.4 4 Noroeste 11 Noroeste 0 -- -- 35
2019-08-22 17:00:00 34 4 Noroeste 15 Noroeste 0 -- -- 34
2019-08-22 16:00:00 32.4 5 Norte 19 Noroeste 0 -- -- 38
2019-08-22 15:00:00 33 5 Sudeste 18 Este 0 -- -- 34
2019-08-22 14:00:00 30.9 10 Sudeste 23 Sudeste 0 -- -- 38
2019-08-22 13:00:00 28.8 17 Sur 33 Sudeste 0 -- -- 42
2019-08-22 12:00:00 26.9 19 Sudeste 33 Sur 0 -- -- 43
2019-08-22 11:00:00 24.2 18 Sudeste 31 Sudeste 0 -- -- 57
2019-08-22 10:00:00 20.5 17 Sudeste 28 Sudeste 0 -- -- 66
2019-08-22 09:00:00 16.6 17 Sudeste 26 Este 0 -- -- 81
2019-08-22 08:00:00 15.4 10 Sudeste 22 Sudeste 0 -- -- 85
2019-08-22 07:00:00 13.9 10 Sudeste 21 Sudeste 0 -- -- 90
2019-08-22 06:00:00 14.1 10 Sudeste 21 Sur 0 -- -- 89
2019-08-22 05:00:00 13.2 2 Oeste 17 Sur 0 -- -- 95
2019-08-22 04:00:00 13.2 4 Sur 13 Este 0 -- -- 95
2019-08-22 03:00:00 14.1 6 Sudeste 17 Sudeste 0 -- -- 91
2019-08-22 02:00:00 14.9 7 Sudeste 18 Sudeste 0 -- -- 91
2019-08-22 01:00:00 15.2 4 Sudeste 13 Este 0 -- -- 89
2019-08-22 00:00:00 16.1 5 Sudeste 19 Este 0 -- -- 85
2019-08-21 23:00:00 16.8 6 Sudeste 13 Este 0 -- -- 81
2019-08-21 22:00:00 18.6 3 Nordeste 15 Este 0 -- -- 73
2019-08-21 21:00:00 21.7 5 Nordeste 16 Nordeste 0 -- -- 63
2019-08-21 20:00:00 27.7 5 Nordeste 20 Nordeste 0 -- -- 48
2019-08-21 19:00:00 29.3 5 Norte 19 Noroeste 0 -- -- 44
2019-08-21 18:00:00 29.2 7 Nordeste 19 Noroeste 0 -- -- 42
2019-08-21 17:00:00 29.3 5 Norte 20 Noroeste 0 -- -- 41
2019-08-21 16:00:00 28.6 6 Norte 19 Noroeste 0 -- -- 44
2019-08-21 15:00:00 26.9 7 Norte 20 Noroeste 0 -- -- 48
2019-08-21 14:00:00 26.7 6 Noroeste 16 Nordeste 0 -- -- 53
2019-08-21 13:00:00 26.4 6 Norte 17 Norte 0 -- -- 52
2019-08-21 12:00:00 25.6 7 Sudeste 20 Sudeste 0 -- -- 44
2019-08-21 11:00:00 23.5 8 Sudeste 31 Este 0 -- -- 55
2019-08-21 10:00:00 19.1 16 Sudeste 30 Sudeste 0 -- -- 66
2019-08-21 09:00:00 16.5 18 Sudeste 31 Este 0 -- -- 74
2019-08-21 08:00:00 14.7 18 Sudeste 27 Sudeste 0 -- -- 83
2019-08-21 07:00:00 14 14 Sudeste 23 Sudeste 0 -- -- 89
2019-08-21 06:00:00 13.7 12 Sudeste 22 Sudeste 0 -- -- 92
2019-08-21 05:00:00 14.2 11 Sudeste 20 Sudeste 0 -- -- 90
2019-08-21 04:00:00 14.5 7 Sudeste 16 Este 0 -- -- 90
2019-08-21 03:00:00 14.9 9 Sudeste 25 Sudeste 0 -- -- 88
2019-08-21 02:00:00 14.9 9 Sudeste 18 Sudeste 0 -- -- 88
2019-08-21 01:00:00 15.4 5 Sudeste 11 Sudeste 0 -- -- 85
2019-08-21 00:00:00 15.8 3 Este 8 Este 0 -- -- 83